createdAt,value
2018-12-14T00:00:02.000Z,28
2018-12-14T00:01:02.000Z,28
2018-12-14T00:03:02.000Z,28.1
2018-12-14T00:05:02.000Z,28
2018-12-14T00:06:02.000Z,28
2018-12-14T00:08:02.000Z,28
2018-12-14T00:09:02.000Z,28
2018-12-14T00:10:02.000Z,28
2018-12-14T00:12:02.000Z,28
2018-12-14T00:13:02.000Z,27.9
2018-12-14T00:15:02.000Z,27.9
2018-12-14T00:17:02.000Z,27.7
2018-12-14T00:19:02.000Z,27.6
2018-12-14T00:21:02.000Z,27.5
2018-12-14T00:22:02.000Z,27.5
2018-12-14T00:24:02.000Z,27.6
2018-12-14T00:26:02.000Z,27.6
2018-12-14T00:27:02.000Z,27.6
2018-12-14T00:28:02.000Z,27.7
2018-12-14T00:30:02.000Z,27.7
2018-12-14T00:32:02.000Z,27.7
2018-12-14T00:33:02.000Z,27.7
2018-12-14T00:34:02.000Z,27.7
2018-12-14T00:36:02.000Z,27.7
2018-12-14T00:37:02.000Z,27.8
2018-12-14T00:38:02.000Z,27.8
2018-12-14T00:39:02.000Z,27.9
2018-12-14T00:41:02.000Z,27.9
2018-12-14T00:43:02.000Z,27.9
2018-12-14T00:44:02.000Z,27.8
2018-12-14T00:46:02.000Z,27.8
2018-12-14T00:47:02.000Z,27.8
2018-12-14T00:48:47.000Z,27.8
2018-12-14T00:50:02.000Z,27.8
2018-12-14T00:52:02.000Z,27.7
2018-12-14T00:54:02.000Z,27.7
2018-12-14T00:56:02.000Z,27.6
2018-12-14T00:57:02.000Z,27.7
2018-12-14T00:59:02.000Z,27.7
2018-12-14T01:01:02.000Z,27.7
2018-12-14T01:03:02.000Z,27.6
2018-12-14T01:05:02.000Z,27.6
2018-12-14T01:07:02.000Z,27.6
2018-12-14T01:09:02.000Z,27.5
2018-12-14T01:10:02.000Z,27.5
2018-12-14T01:11:02.000Z,27.5
2018-12-14T01:12:02.000Z,27.6
2018-12-14T01:14:02.000Z,27.6
2018-12-14T01:16:02.000Z,27.5
2018-12-14T01:17:02.000Z,27.5
2018-12-14T01:18:02.000Z,27.6
2018-12-14T01:19:02.000Z,27.6
2018-12-14T01:21:02.000Z,27.6
2018-12-14T01:22:02.000Z,27.6
2018-12-14T01:24:02.000Z,27.6
2018-12-14T01:26:02.000Z,27.5
2018-12-14T01:28:02.000Z,27.5
2018-12-14T01:30:02.000Z,27.5
2018-12-14T01:31:02.000Z,27.5
2018-12-14T01:33:02.000Z,27.5
2018-12-14T01:34:02.000Z,27.5
2018-12-14T01:36:02.000Z,27.6
2018-12-14T01:37:47.000Z,27.5
2018-12-14T01:40:02.000Z,27.4
2018-12-14T01:42:02.000Z,27.3
2018-12-14T01:44:02.000Z,27.2
2018-12-14T01:45:02.000Z,27.2
2018-12-14T01:47:02.000Z,27.2
2018-12-14T01:49:02.000Z,27.2
2018-12-14T01:51:02.000Z,27.3
2018-12-14T01:52:02.000Z,27.3
2018-12-14T01:54:02.000Z,27.4
2018-12-14T01:55:02.000Z,27.5
2018-12-14T01:57:02.000Z,27.5
2018-12-14T01:58:02.000Z,27.6
2018-12-14T02:00:02.000Z,27.6
2018-12-14T02:02:02.000Z,27.5
2018-12-14T02:03:47.000Z,27.5
2018-12-14T02:05:02.000Z,27.4
2018-12-14T02:06:02.000Z,27.5
2018-12-14T02:08:02.000Z,27.5
2018-12-14T02:10:02.000Z,27.5
2018-12-14T02:12:02.000Z,27.4
2018-12-14T02:13:02.000Z,27.4
2018-12-14T02:14:02.000Z,27.5
2018-12-14T02:16:02.000Z,27.6
2018-12-14T02:17:47.000Z,27.6
2018-12-14T02:19:02.000Z,27.6
2018-12-14T02:21:02.000Z,27.5
2018-12-14T02:23:02.000Z,27.5
2018-12-14T02:24:02.000Z,27.5
2018-12-14T02:26:02.000Z,27.5
2018-12-14T02:28:02.000Z,27.4
2018-12-14T02:29:02.000Z,27.4
2018-12-14T02:30:02.000Z,27.4
2018-12-14T02:31:02.000Z,27.5
2018-12-14T02:33:02.000Z,27.6
2018-12-14T02:34:02.000Z,27.6
2018-12-14T02:35:02.000Z,27.6
2018-12-14T02:37:02.000Z,27.7
2018-12-14T02:39:02.000Z,27.6
2018-12-14T02:40:02.000Z,27.6
2018-12-14T02:42:02.000Z,27.6
2018-12-14T02:43:02.000Z,27.6
2018-12-14T02:44:02.000Z,27.6
2018-12-14T02:45:02.000Z,27.6
2018-12-14T02:46:02.000Z,27.6
2018-12-14T02:48:02.000Z,27.7
2018-12-14T02:49:02.000Z,27.7
2018-12-14T02:51:02.000Z,27.6
2018-12-14T02:53:02.000Z,27.5
2018-12-14T02:54:02.000Z,27.5
2018-12-14T02:55:02.000Z,27.5
2018-12-14T02:57:02.000Z,27.5
2018-12-14T02:58:02.000Z,27.5
2018-12-14T02:59:47.000Z,27.6
2018-12-14T03:01:02.000Z,27.5
2018-12-14T03:02:02.000Z,27.5
2018-12-14T03:03:02.000Z,27.6
2018-12-14T03:05:02.000Z,27.6
2018-12-14T03:06:02.000Z,27.7
2018-12-14T03:08:02.000Z,27.7
2018-12-14T03:10:02.000Z,27.7
2018-12-14T03:12:02.000Z,27.6
2018-12-14T03:13:02.000Z,27.6
2018-12-14T03:14:02.000Z,27.6
2018-12-14T03:15:02.000Z,27.7
2018-12-14T03:16:47.000Z,27.6
2018-12-14T03:18:02.000Z,27.6
2018-12-14T03:20:02.000Z,27.5
2018-12-14T03:22:02.000Z,27.5
2018-12-14T03:24:02.000Z,27.4
2018-12-14T03:25:02.000Z,27.4
2018-12-14T03:26:02.000Z,27.4
2018-12-14T03:28:02.000Z,27.5
2018-12-14T03:30:02.000Z,27.5
2018-12-14T03:31:02.000Z,27.5
2018-12-14T03:33:02.000Z,27.5
2018-12-14T03:34:47.000Z,27.5
2018-12-14T03:36:02.000Z,27.5
2018-12-14T03:38:02.000Z,27.4
2018-12-14T03:39:02.000Z,27.4
2018-12-14T03:41:02.000Z,27.4
2018-12-14T03:42:02.000Z,27.4
2018-12-14T03:44:02.000Z,27.4
2018-12-14T03:46:02.000Z,27.4
2018-12-14T03:48:02.000Z,27.4
2018-12-14T03:50:02.000Z,27.4
2018-12-14T03:52:03.000Z,27.4
2018-12-14T03:53:03.000Z,27.4
2018-12-14T03:55:03.000Z,27.4
2018-12-14T03:56:03.000Z,27.4
2018-12-14T03:58:03.000Z,27.5
2018-12-14T03:59:03.000Z,27.5
2018-12-14T04:01:03.000Z,27.5
2018-12-14T04:02:03.000Z,27.5
2018-12-14T04:04:03.000Z,27.5
2018-12-14T04:05:03.000Z,27.5
2018-12-14T04:07:03.000Z,27.6
2018-12-14T04:08:03.000Z,27.6
2018-12-14T04:10:03.000Z,27.6
2018-12-14T04:11:47.000Z,27.6
2018-12-14T04:13:03.000Z,27.5
2018-12-14T04:15:03.000Z,27.4
2018-12-14T04:16:03.000Z,27.4
2018-12-14T04:18:03.000Z,27.5
2018-12-14T04:20:03.000Z,27.4
2018-12-14T04:22:03.000Z,27.3
2018-12-14T04:23:03.000Z,27.3
2018-12-14T04:25:03.000Z,27.4
2018-12-14T04:26:03.000Z,27.4
2018-12-14T04:28:03.000Z,27.4
2018-12-14T04:30:03.000Z,27.3
2018-12-14T04:31:03.000Z,27.4
2018-12-14T04:33:03.000Z,27.4
2018-12-14T04:35:03.000Z,27.4
2018-12-14T04:37:03.000Z,27.4
2018-12-14T04:38:03.000Z,27.4
2018-12-14T04:39:47.000Z,27.4
2018-12-14T04:41:03.000Z,27.4
2018-12-14T04:42:03.000Z,27.4
2018-12-14T04:44:03.000Z,27.4
2018-12-14T04:46:03.000Z,27.4
2018-12-14T04:47:03.000Z,27.4
2018-12-14T04:49:03.000Z,27.4
2018-12-14T04:50:03.000Z,27.4
2018-12-14T04:51:03.000Z,27.5
2018-12-14T04:53:03.000Z,27.5
2018-12-14T04:55:03.000Z,27.4
2018-12-14T04:57:02.000Z,27.4
2018-12-14T04:58:02.000Z,27.3
2018-12-14T05:00:02.000Z,27.4
2018-12-14T05:01:02.000Z,27.4
2018-12-14T05:02:02.000Z,27.5
2018-12-14T05:03:47.000Z,27.5
2018-12-14T05:05:02.000Z,27.5
2018-12-14T05:06:02.000Z,27.5
2018-12-14T05:08:02.000Z,27.5
2018-12-14T05:09:02.000Z,27.5
2018-12-14T05:11:02.000Z,27.5
2018-12-14T05:13:02.000Z,27.5
2018-12-14T05:15:02.000Z,27.4
2018-12-14T05:16:02.000Z,27.4
2018-12-14T05:18:02.000Z,27.3
2018-12-14T05:19:02.000Z,27.2
2018-12-14T05:20:02.000Z,27.3
2018-12-14T05:21:47.000Z,27.3
2018-12-14T05:23:02.000Z,27.3
2018-12-14T05:25:02.000Z,27.3
2018-12-14T05:26:02.000Z,27.2
2018-12-14T05:27:02.000Z,27.2
2018-12-14T05:29:02.000Z,27.1
2018-12-14T05:31:02.000Z,26.9
2018-12-14T05:32:02.000Z,26.9
2018-12-14T05:33:47.000Z,26.9
2018-12-14T05:35:02.000Z,26.9
2018-12-14T05:36:02.000Z,26.9
2018-12-14T05:37:02.000Z,26.9
2018-12-14T05:39:02.000Z,27
2018-12-14T05:40:02.000Z,27
2018-12-14T05:42:02.000Z,26.9
2018-12-14T05:44:02.000Z,26.9
2018-12-14T05:45:02.000Z,26.9
2018-12-14T05:47:02.000Z,26.9
2018-12-14T05:48:02.000Z,26.9
2018-12-14T05:50:02.000Z,27
2018-12-14T05:52:02.000Z,26.9
2018-12-14T05:53:02.000Z,26.8
2018-12-14T05:54:02.000Z,26.8
2018-12-14T05:55:02.000Z,26.9
2018-12-14T05:57:02.000Z,26.9
2018-12-14T05:58:47.000Z,26.9
2018-12-14T06:00:02.000Z,26.8
2018-12-14T06:01:02.000Z,26.8
2018-12-14T06:02:02.000Z,26.9
2018-12-14T06:03:02.000Z,26.9
2018-12-14T06:05:02.000Z,27
2018-12-14T06:06:02.000Z,27
2018-12-14T06:08:02.000Z,27.1
2018-12-14T06:10:02.000Z,27
2018-12-14T06:12:02.000Z,27
2018-12-14T06:13:02.000Z,27
2018-12-14T06:14:47.000Z,26.9
2018-12-14T06:16:02.000Z,26.9
2018-12-14T06:17:02.000Z,27
2018-12-14T06:19:02.000Z,27
2018-12-14T06:20:02.000Z,27.1
2018-12-14T06:22:02.000Z,27
2018-12-14T06:23:02.000Z,27
2018-12-14T06:24:02.000Z,27
2018-12-14T06:25:02.000Z,27.1
2018-12-14T06:27:02.000Z,27.2
2018-12-14T06:28:02.000Z,27.2
2018-12-14T06:30:02.000Z,27.2
2018-12-14T06:31:02.000Z,27.1
2018-12-14T06:33:02.000Z,27.2
2018-12-14T06:34:02.000Z,27.2
2018-12-14T06:35:47.000Z,27.2
2018-12-14T06:37:02.000Z,27.2
2018-12-14T06:39:02.000Z,27.2
2018-12-14T06:41:02.000Z,27.2
2018-12-14T06:43:02.000Z,27.2
2018-12-14T06:45:02.000Z,27.3
2018-12-14T06:47:02.000Z,27.4
2018-12-14T06:49:02.000Z,27.5
2018-12-14T06:51:02.000Z,27.5
2018-12-14T06:53:02.000Z,27.5
2018-12-14T06:55:02.000Z,27.5
2018-12-14T06:56:02.000Z,27.5
2018-12-14T06:58:02.000Z,27.6
2018-12-14T06:59:02.000Z,27.6
2018-12-14T07:01:02.000Z,27.7
2018-12-14T07:03:02.000Z,27.7
2018-12-14T07:04:02.000Z,27.7
2018-12-14T07:06:02.000Z,27.8
2018-12-14T07:07:02.000Z,27.8
2018-12-14T07:09:02.000Z,27.7
2018-12-14T07:10:02.000Z,27.7
2018-12-14T07:11:02.000Z,27.8
2018-12-14T07:13:02.000Z,27.8
2018-12-14T07:14:47.000Z,27.7
2018-12-14T07:16:02.000Z,27.7
2018-12-14T07:18:02.000Z,27.7
2018-12-14T07:19:02.000Z,27.7
2018-12-14T07:20:02.000Z,27.8
2018-12-14T07:21:02.000Z,27.9
2018-12-14T07:23:02.000Z,28
2018-12-14T07:24:02.000Z,28
2018-12-14T07:25:02.000Z,28.1
2018-12-14T07:27:02.000Z,28
2018-12-14T07:29:02.000Z,28
2018-12-14T07:30:02.000Z,28
2018-12-14T07:32:02.000Z,28
2018-12-14T07:34:02.000Z,28
2018-12-14T07:36:02.000Z,27.9
2018-12-14T07:37:02.000Z,27.9
2018-12-14T07:38:47.000Z,27.9
2018-12-14T07:40:02.000Z,27.8
2018-12-14T07:42:02.000Z,27.7
2018-12-14T07:44:02.000Z,27.7
2018-12-14T07:46:02.000Z,27.7
2018-12-14T07:48:02.000Z,27.6
2018-12-14T07:50:02.000Z,27.6
2018-12-14T07:52:02.000Z,27.5
2018-12-14T07:54:02.000Z,27.6
2018-12-14T07:56:02.000Z,27.5
2018-12-14T07:58:02.000Z,27.5
2018-12-14T07:59:47.000Z,27.6
2018-12-14T08:01:02.000Z,27.6
2018-12-14T08:02:02.000Z,27.6
2018-12-14T08:04:02.000Z,27.7
2018-12-14T08:05:02.000Z,27.7
2018-12-14T08:06:02.000Z,27.7
2018-12-14T08:08:03.000Z,27.8
2018-12-14T08:09:03.000Z,27.8
2018-12-14T08:11:03.000Z,27.8
2018-12-14T08:12:48.000Z,27.8
2018-12-14T08:14:03.000Z,27.8
2018-12-14T08:15:03.000Z,27.8
2018-12-14T08:17:03.000Z,27.9
2018-12-14T08:19:03.000Z,27.9
2018-12-14T08:20:03.000Z,28
2018-12-14T08:22:03.000Z,28.1
2018-12-14T08:23:03.000Z,28.1
2018-12-14T08:24:03.000Z,28.2
2018-12-14T08:26:03.000Z,28.3
2018-12-14T08:28:03.000Z,28.3
2018-12-14T08:30:03.000Z,28.3
2018-12-14T08:31:03.000Z,28.3
2018-12-14T08:33:03.000Z,28.3
2018-12-14T08:34:03.000Z,28.4
2018-12-14T08:36:03.000Z,28.4
2018-12-14T08:38:03.000Z,28.4
2018-12-14T08:39:03.000Z,28.4
2018-12-14T08:41:03.000Z,28.5
2018-12-14T08:42:03.000Z,28.5
2018-12-14T08:43:03.000Z,28.6
2018-12-14T08:45:03.000Z,28.6
2018-12-14T08:46:03.000Z,28.7
2018-12-14T08:47:03.000Z,28.7
2018-12-14T08:49:03.000Z,28.8
2018-12-14T08:51:03.000Z,28.8
2018-12-14T08:53:03.000Z,28.7
2018-12-14T08:54:03.000Z,28.7
2018-12-14T08:56:03.000Z,28.7
2018-12-14T08:57:03.000Z,28.8
2018-12-14T08:59:03.000Z,28.9
2018-12-14T09:00:03.000Z,28.9
2018-12-14T09:02:03.000Z,28.9
2018-12-14T09:03:03.000Z,29
2018-12-14T09:04:03.000Z,29
2018-12-14T09:05:03.000Z,29
2018-12-14T09:06:03.000Z,29.1
2018-12-14T09:08:03.000Z,29.2
2018-12-14T09:09:03.000Z,29.2
2018-12-14T09:11:02.000Z,29.2
2018-12-14T09:13:02.000Z,29.2
2018-12-14T09:15:02.000Z,29.2
2018-12-14T09:17:02.000Z,29.1
2018-12-14T09:18:02.000Z,29.1
2018-12-14T09:19:02.000Z,29.1
2018-12-14T09:21:02.000Z,29.1
2018-12-14T09:22:02.000Z,29.2
2018-12-14T09:24:02.000Z,29.2
2018-12-14T09:26:02.000Z,29.2
2018-12-14T09:28:02.000Z,29.2
2018-12-14T09:29:47.000Z,29.3
2018-12-14T09:31:02.000Z,29.2
2018-12-14T09:33:02.000Z,29.2
2018-12-14T09:35:02.000Z,29.2
2018-12-14T09:37:02.000Z,29.1
2018-12-14T09:39:02.000Z,29.1
2018-12-14T09:41:02.000Z,29.2
2018-12-14T09:42:02.000Z,29.2
2018-12-14T09:43:47.000Z,29.3
2018-12-14T09:45:02.000Z,29.1
2018-12-14T09:46:02.000Z,29.2
2018-12-14T09:47:02.000Z,29.2
2018-12-14T09:49:02.000Z,29.4
2018-12-14T09:50:02.000Z,29.4
2018-12-14T09:51:02.000Z,29.5
2018-12-14T09:53:02.000Z,29.5
2018-12-14T09:55:02.000Z,29.5
2018-12-14T09:57:02.000Z,29.5
2018-12-14T09:58:02.000Z,29.5
2018-12-14T10:00:02.000Z,29.5
2018-12-14T10:01:02.000Z,29.5
2018-12-14T10:03:02.000Z,29.6
2018-12-14T10:04:02.000Z,29.6
2018-12-14T10:06:02.000Z,29.7
2018-12-14T10:08:02.000Z,29.7
2018-12-14T10:10:02.000Z,29.7
2018-12-14T10:11:47.000Z,29.8
2018-12-14T10:13:02.000Z,29.6
2018-12-14T10:14:02.000Z,29.6
2018-12-14T10:16:02.000Z,29.6
2018-12-14T10:18:02.000Z,29.7
2018-12-14T10:19:02.000Z,29.7
2018-12-14T10:20:02.000Z,29.8
2018-12-14T10:22:02.000Z,29.8
2018-12-14T10:23:02.000Z,29.8
2018-12-14T10:25:02.000Z,29.9
2018-12-14T10:26:02.000Z,29.9
2018-12-14T10:28:02.000Z,30
2018-12-14T10:30:02.000Z,30
2018-12-14T10:31:47.000Z,30
2018-12-14T10:33:02.000Z,30
2018-12-14T10:34:02.000Z,30
2018-12-14T10:36:02.000Z,30
2018-12-14T10:37:02.000Z,30.1
2018-12-14T10:38:02.000Z,30.1
2018-12-14T10:40:02.000Z,30.1
2018-12-14T10:41:47.000Z,30.1
2018-12-14T10:43:02.000Z,30.1
2018-12-14T10:44:02.000Z,30.1
2018-12-14T10:45:47.000Z,30.1
2018-12-14T10:47:02.000Z,30
2018-12-14T10:48:02.000Z,30.1
2018-12-14T10:49:02.000Z,30.1
2018-12-14T10:50:02.000Z,30.2
2018-12-14T10:52:02.000Z,30.3
2018-12-14T10:54:02.000Z,30.3
2018-12-14T10:55:02.000Z,30.3
2018-12-14T10:57:02.000Z,30.3
2018-12-14T10:58:02.000Z,30.3
2018-12-14T11:00:02.000Z,29.7
2018-12-14T11:01:02.000Z,29.5
2018-12-14T11:02:02.000Z,29.2
2018-12-14T11:04:02.000Z,28.7
2018-12-14T11:06:02.000Z,28.3
2018-12-14T11:07:02.000Z,28.2
2018-12-14T11:09:02.000Z,28
2018-12-14T11:10:02.000Z,27.9
2018-12-14T11:11:02.000Z,27.9
2018-12-14T11:13:02.000Z,27.8
2018-12-14T11:14:02.000Z,27.8
2018-12-14T11:15:02.000Z,27.8
2018-12-14T11:17:02.000Z,27.6
2018-12-14T11:18:03.000Z,27.4
2018-12-14T11:19:03.000Z,27
2018-12-14T11:21:03.000Z,26.4
2018-12-14T11:22:03.000Z,26
2018-12-14T11:23:03.000Z,25.7
2018-12-14T11:24:03.000Z,25.5
2018-12-14T11:26:03.000Z,25.4
2018-12-14T11:27:03.000Z,25.6
2018-12-14T11:28:03.000Z,25.9
2018-12-14T11:29:03.000Z,26.1
2018-12-14T11:30:47.000Z,26.6
2018-12-14T11:32:03.000Z,26.8
2018-12-14T11:33:03.000Z,27
2018-12-14T11:35:03.000Z,27.4
2018-12-14T11:37:03.000Z,27.6
2018-12-14T11:39:03.000Z,27.8
2018-12-14T11:41:03.000Z,27.8
2018-12-14T11:43:03.000Z,27.8
2018-12-14T11:45:03.000Z,28
2018-12-14T11:47:03.000Z,28.2
2018-12-14T11:49:03.000Z,28.4
2018-12-14T11:51:03.000Z,28.5
2018-12-14T11:52:03.000Z,28.6
2018-12-14T11:53:03.000Z,28.7
2018-12-14T11:54:03.000Z,28.8
2018-12-14T11:55:47.000Z,29
2018-12-14T11:57:03.000Z,29
2018-12-14T11:59:03.000Z,29.1
2018-12-14T12:00:03.000Z,29.1
2018-12-14T12:02:03.000Z,29.3
2018-12-14T12:03:03.000Z,29.3
2018-12-14T12:04:47.000Z,29.4
2018-12-14T12:06:03.000Z,29.4
2018-12-14T12:07:03.000Z,29.4
2018-12-14T12:09:03.000Z,29.4
2018-12-14T12:10:03.000Z,29.4
2018-12-14T12:12:03.000Z,29.5
2018-12-14T12:13:03.000Z,29.5
2018-12-14T12:15:03.000Z,29.5
2018-12-14T12:17:03.000Z,29.6
2018-12-14T12:19:03.000Z,29.5
2018-12-14T12:20:03.000Z,29.5
2018-12-14T12:21:02.000Z,29.5
2018-12-14T12:23:02.000Z,29.6
2018-12-14T12:24:02.000Z,29.6
2018-12-14T12:25:47.000Z,29.6
2018-12-14T12:27:02.000Z,29.6
2018-12-14T12:28:02.000Z,29.6
2018-12-14T12:30:02.000Z,29.7
2018-12-14T12:32:02.000Z,29.6
2018-12-14T12:33:02.000Z,29.6
2018-12-14T12:34:02.000Z,29.7
2018-12-14T12:35:48.000Z,29.7
2018-12-14T12:37:02.000Z,29.6
2018-12-14T12:39:02.000Z,29.6
2018-12-14T12:40:02.000Z,29.6
2018-12-14T12:41:02.000Z,29.7
2018-12-14T12:43:02.000Z,29.8
2018-12-14T12:44:02.000Z,29.8
2018-12-14T12:45:02.000Z,29.7
2018-12-14T12:47:02.000Z,29.6
2018-12-14T12:48:02.000Z,29.5
2018-12-14T12:50:02.000Z,29.5
2018-12-14T12:51:03.000Z,29.5
2018-12-14T12:53:03.000Z,29.5
2018-12-14T12:54:47.000Z,29.6
2018-12-14T12:56:02.000Z,29.5
2018-12-14T12:57:02.000Z,29.5
2018-12-14T12:59:03.000Z,29.5
2018-12-14T13:01:02.000Z,29.5
2018-12-14T13:02:47.000Z,29.4
2018-12-14T13:04:02.000Z,28.9
2018-12-14T13:06:02.000Z,28.3
2018-12-14T13:08:02.000Z,27.6
2018-12-14T13:10:02.000Z,26.9
2018-12-14T13:11:47.000Z,26.4
2018-12-14T13:13:02.000Z,26
2018-12-14T13:14:02.000Z,25.8
2018-12-14T13:16:02.000Z,25.6
2018-12-14T13:17:02.000Z,25.8
2018-12-14T13:19:03.000Z,26.1
2018-12-14T13:20:03.000Z,26.3
2018-12-14T13:22:03.000Z,26.6
2018-12-14T13:23:03.000Z,26.8
2018-12-14T13:25:02.000Z,27
2018-12-14T13:27:02.000Z,27.2
2018-12-14T13:29:02.000Z,27.3
2018-12-14T13:30:02.000Z,27.4
2018-12-14T13:32:02.000Z,27.6
2018-12-14T13:34:02.000Z,27.7
2018-12-14T13:35:02.000Z,27.8
2018-12-14T13:36:02.000Z,27.9
2018-12-14T13:37:02.000Z,28
2018-12-14T13:38:02.000Z,28.1
2018-12-14T13:40:02.000Z,28.2
2018-12-14T13:41:02.000Z,28.2
2018-12-14T13:42:47.000Z,28.3
2018-12-14T13:44:02.000Z,28.3
2018-12-14T13:45:02.000Z,28.4
2018-12-14T13:47:02.000Z,28.4
2018-12-14T13:48:02.000Z,28.4
2018-12-14T13:50:02.000Z,28.4
2018-12-14T13:51:02.000Z,28.4
2018-12-14T13:53:02.000Z,28.3
2018-12-14T13:54:02.000Z,28.3
2018-12-14T13:56:02.000Z,28.3
2018-12-14T13:58:02.000Z,28.3
2018-12-14T14:00:02.000Z,28.3
2018-12-14T14:01:02.000Z,28.3
2018-12-14T14:03:02.000Z,28.3
2018-12-14T14:04:02.000Z,28.4
2018-12-14T14:06:02.000Z,28.5
2018-12-14T14:07:02.000Z,28.5
2018-12-14T14:08:02.000Z,28.6
2018-12-14T14:10:02.000Z,28.6
2018-12-14T14:12:02.000Z,28.6
2018-12-14T14:14:02.000Z,28.6
2018-12-14T14:15:50.000Z,28.5
2018-12-14T14:18:02.000Z,28.4
2018-12-14T14:19:02.000Z,28.4
2018-12-14T14:20:02.000Z,28.4
2018-12-14T14:21:47.000Z,28.5
2018-12-14T14:23:02.000Z,28.5
2018-12-14T14:24:02.000Z,28.5
2018-12-14T14:25:02.000Z,28.6
2018-12-14T14:26:47.000Z,28.7
2018-12-14T14:28:03.000Z,28.7
2018-12-14T14:29:03.000Z,28.7
2018-12-14T14:31:03.000Z,28.7
2018-12-14T14:32:47.000Z,28.7
2018-12-14T14:34:03.000Z,28.6
2018-12-14T14:36:03.000Z,28.6
2018-12-14T14:38:03.000Z,28.6
2018-12-14T14:39:47.000Z,28.7
2018-12-14T14:41:03.000Z,28.7
2018-12-14T14:42:03.000Z,28.7
2018-12-14T14:44:03.000Z,28.8
2018-12-14T14:45:03.000Z,28.9
2018-12-14T14:47:03.000Z,28.9
2018-12-14T14:49:03.000Z,28.9
2018-12-14T14:50:03.000Z,28.9
2018-12-14T14:52:03.000Z,29
2018-12-14T14:53:03.000Z,29
2018-12-14T14:54:03.000Z,29.1
2018-12-14T14:56:03.000Z,29.2
2018-12-14T14:57:47.000Z,29.2
2018-12-14T14:59:03.000Z,29.2
2018-12-14T15:01:03.000Z,29.1
2018-12-14T15:03:03.000Z,29.1
2018-12-14T15:04:03.000Z,29.1
2018-12-14T15:05:47.000Z,29.1
2018-12-14T15:07:03.000Z,29.1
2018-12-14T15:09:03.000Z,29.1
2018-12-14T15:11:03.000Z,29
2018-12-14T15:13:03.000Z,28.2
2018-12-14T15:14:03.000Z,27.7
2018-12-14T15:15:03.000Z,27.3
2018-12-14T15:17:03.000Z,27
2018-12-14T15:19:03.000Z,27.1
2018-12-14T15:21:03.000Z,27.3
2018-12-14T15:22:03.000Z,27.4
2018-12-14T15:23:47.000Z,27.6
2018-12-14T15:25:03.000Z,27.7
2018-12-14T15:27:03.000Z,27.8
2018-12-14T15:28:03.000Z,27.9
2018-12-14T15:30:03.000Z,28.1
2018-12-14T15:31:03.000Z,28.2
2018-12-14T15:32:02.000Z,28.3
2018-12-14T15:34:02.000Z,28.4
2018-12-14T15:36:02.000Z,28.6
2018-12-14T15:37:02.000Z,28.6
2018-12-14T15:39:02.000Z,28.6
2018-12-14T15:40:02.000Z,28.6
2018-12-14T15:42:02.000Z,28.6
2018-12-14T15:44:02.000Z,28.7
2018-12-14T15:46:02.000Z,28.6
2018-12-14T15:48:02.000Z,28.6
2018-12-14T15:49:02.000Z,28.6
2018-12-14T15:51:02.000Z,28.6
2018-12-14T15:53:02.000Z,28.7
2018-12-14T15:55:02.000Z,28.6
2018-12-14T15:57:02.000Z,28.6
2018-12-14T15:59:02.000Z,28.6
2018-12-14T16:00:02.000Z,28.6
2018-12-14T16:01:02.000Z,28.6
2018-12-14T16:03:02.000Z,28.7
2018-12-14T16:04:02.000Z,28.7
2018-12-14T16:05:02.000Z,28.7
2018-12-14T16:06:02.000Z,28.8
2018-12-14T16:07:02.000Z,28.8
2018-12-14T16:09:02.000Z,28.9
2018-12-14T16:10:47.000Z,28.9
2018-12-14T16:12:02.000Z,28.8
2018-12-14T16:13:02.000Z,28.8
2018-12-14T16:15:02.000Z,28.9
2018-12-14T16:16:47.000Z,28.9
2018-12-14T16:18:02.000Z,28.8
2018-12-14T16:19:02.000Z,28.8
2018-12-14T16:20:02.000Z,28.9
2018-12-14T16:22:02.000Z,28.9
2018-12-14T16:24:02.000Z,28.7
2018-12-14T16:25:02.000Z,28.7
2018-12-14T16:26:02.000Z,28.7
2018-12-14T16:28:02.000Z,28.8
2018-12-14T16:29:47.000Z,28.9
2018-12-14T16:31:02.000Z,28.8
2018-12-14T16:32:02.000Z,28.8
2018-12-14T16:34:02.000Z,28.8
2018-12-14T16:36:03.000Z,28.8
2018-12-14T16:38:03.000Z,28.7
2018-12-14T16:40:03.000Z,28.7
2018-12-14T16:41:03.000Z,28.7
2018-12-14T16:42:03.000Z,28.7
2018-12-14T16:43:03.000Z,28.8
2018-12-14T16:44:03.000Z,28.8
2018-12-14T16:46:03.000Z,28.9
2018-12-14T16:47:03.000Z,28.9
2018-12-14T16:49:03.000Z,29
2018-12-14T16:50:03.000Z,29
2018-12-14T16:52:03.000Z,28.9
2018-12-14T16:53:03.000Z,28.9
2018-12-14T16:54:03.000Z,28.9
2018-12-14T16:55:03.000Z,29
2018-12-14T16:56:47.000Z,29
2018-12-14T16:57:48.000Z,29
2018-12-14T16:59:03.000Z,28.8
2018-12-14T17:00:03.000Z,28.8
2018-12-14T17:01:03.000Z,28.8
2018-12-14T17:02:03.000Z,28.9
2018-12-14T17:03:47.000Z,28.9
2018-12-14T17:05:03.000Z,28.9
2018-12-14T17:06:03.000Z,28.9
2018-12-14T17:07:47.000Z,29
2018-12-14T17:09:03.000Z,28.9
2018-12-14T17:11:03.000Z,28.9
2018-12-14T17:13:03.000Z,28.8
2018-12-14T17:15:03.000Z,28.7
2018-12-14T17:17:03.000Z,28.6
2018-12-14T17:18:03.000Z,28.6
2018-12-14T17:20:03.000Z,28.6
2018-12-14T17:22:03.000Z,28.5
2018-12-14T17:23:03.000Z,28.5
2018-12-14T17:25:03.000Z,28.6
2018-12-14T17:26:03.000Z,28.6
2018-12-14T17:28:03.000Z,28.7
2018-12-14T17:30:03.000Z,28.6
2018-12-14T17:31:03.000Z,28.6
2018-12-14T17:32:03.000Z,28.6
2018-12-14T17:34:03.000Z,28.6
2018-12-14T17:35:03.000Z,28.6
2018-12-14T17:37:03.000Z,28.6
2018-12-14T17:39:03.000Z,28.5
2018-12-14T17:41:03.000Z,28.5
2018-12-14T17:42:47.000Z,28.5
2018-12-14T17:44:03.000Z,28.5
2018-12-14T17:45:03.000Z,28.5
2018-12-14T17:46:03.000Z,28.5
2018-12-14T17:48:03.000Z,28.6
2018-12-14T17:50:03.000Z,28.6
2018-12-14T17:51:03.000Z,28.7
2018-12-14T17:53:03.000Z,28.6
2018-12-14T17:55:03.000Z,28.6
2018-12-14T17:56:03.000Z,28.6
2018-12-14T17:57:47.000Z,28.6
2018-12-14T17:59:03.000Z,28.6
2018-12-14T18:00:03.000Z,28.6
2018-12-14T18:01:03.000Z,28.6
2018-12-14T18:03:03.000Z,28.6
2018-12-14T18:05:03.000Z,28.6
2018-12-14T18:06:03.000Z,28.6
2018-12-14T18:07:03.000Z,28.6
2018-12-14T18:09:03.000Z,28.6
2018-12-14T18:10:03.000Z,28.6
2018-12-14T18:12:03.000Z,28.5
2018-12-14T18:14:03.000Z,28.5
2018-12-14T18:15:03.000Z,28.5
2018-12-14T18:17:03.000Z,28.6
2018-12-14T18:19:03.000Z,28.5
2018-12-14T18:21:03.000Z,28.5
2018-12-14T18:22:03.000Z,28.5
2018-12-14T18:24:03.000Z,28.5
2018-12-14T18:25:47.000Z,28.5
2018-12-14T18:27:03.000Z,28.5
2018-12-14T18:28:03.000Z,28.5
2018-12-14T18:30:03.000Z,28.5
2018-12-14T18:31:47.000Z,28.5
2018-12-14T18:33:03.000Z,28.5
2018-12-14T18:35:03.000Z,28.5
2018-12-14T18:36:03.000Z,28.5
2018-12-14T18:38:03.000Z,28.5
2018-12-14T18:40:03.000Z,28.4
2018-12-14T18:41:03.000Z,28.4
2018-12-14T18:42:03.000Z,28.4
2018-12-14T18:44:02.000Z,28.4
2018-12-14T18:45:47.000Z,28.4
2018-12-14T18:47:02.000Z,28.3
2018-12-14T18:48:02.000Z,28.3
2018-12-14T18:49:02.000Z,28.3
2018-12-14T18:50:02.000Z,28.4
2018-12-14T18:52:02.000Z,28.4
2018-12-14T18:53:02.000Z,28.5
2018-12-14T18:54:02.000Z,28.5
2018-12-14T18:55:02.000Z,28.6
2018-12-14T18:56:02.000Z,28.6
2018-12-14T18:58:02.000Z,28.6
2018-12-14T19:00:02.000Z,28.6
2018-12-14T19:02:02.000Z,28.5
2018-12-14T19:03:02.000Z,28.4
2018-12-14T19:05:02.000Z,28.4
2018-12-14T19:07:02.000Z,28.4
2018-12-14T19:08:02.000Z,28.4
2018-12-14T19:10:02.000Z,28.4
2018-12-14T19:12:02.000Z,28.4
2018-12-14T19:14:02.000Z,28.4
2018-12-14T19:16:02.000Z,28.3
2018-12-14T19:18:02.000Z,28.2
2018-12-14T19:19:02.000Z,28.2
2018-12-14T19:21:02.000Z,28.2
2018-12-14T19:22:02.000Z,28.2
2018-12-14T19:24:02.000Z,28.3
2018-12-14T19:25:02.000Z,28.3
2018-12-14T19:26:02.000Z,28.4
2018-12-14T19:27:47.000Z,28.4
2018-12-14T19:29:02.000Z,28.4
2018-12-14T19:31:02.000Z,28.4
2018-12-14T19:32:02.000Z,28.4
2018-12-14T19:34:02.000Z,28.4
2018-12-14T19:35:02.000Z,28.4
2018-12-14T19:37:02.000Z,28.5
2018-12-14T19:39:02.000Z,28.4
2018-12-14T19:41:02.000Z,28.4
2018-12-14T19:42:02.000Z,28.4
2018-12-14T19:43:02.000Z,28.4
2018-12-14T19:44:47.000Z,28.5
2018-12-14T19:46:02.000Z,28.5
2018-12-14T19:48:02.000Z,28.3
2018-12-14T19:50:02.000Z,28.2
2018-12-14T19:51:02.000Z,28.2
2018-12-14T19:53:02.000Z,28.2
2018-12-14T19:55:02.000Z,28.2
2018-12-14T19:57:02.000Z,28.2
2018-12-14T19:58:02.000Z,28.2
2018-12-14T20:00:02.000Z,28.2
2018-12-14T20:02:02.000Z,28.2
2018-12-14T20:04:02.000Z,28.1
2018-12-14T20:06:02.000Z,28.1
2018-12-14T20:07:47.000Z,28.1
2018-12-14T20:08:48.000Z,28
2018-12-14T20:10:48.000Z,27.9
2018-12-14T20:12:02.000Z,27.9
2018-12-14T20:13:02.000Z,27.9
2018-12-14T20:15:02.000Z,27.9
2018-12-14T20:16:02.000Z,28
2018-12-14T20:17:02.000Z,28
2018-12-14T20:19:02.000Z,28.1
2018-12-14T20:20:02.000Z,28.1
2018-12-14T20:22:02.000Z,28.1
2018-12-14T20:23:02.000Z,28
2018-12-14T20:24:02.000Z,28.1
2018-12-14T20:26:02.000Z,28.2
2018-12-14T20:27:02.000Z,28.2
2018-12-14T20:29:02.000Z,28.2
2018-12-14T20:30:02.000Z,28.2
2018-12-14T20:32:02.000Z,28.2
2018-12-14T20:33:02.000Z,28.1